Time;durP1;ratioP1;P1;durP2;ratioP2;P2;SDS_P1;SDS_P2;PMS_P1;PMS_P2;Temp;Humidity;BMP_temperature;BMP_pressure;BME280_temperature;BME280_humidity;BME280_pressure;Samples;Min_cycle;Max_cycle;Signal;HPM_P1;HPM_P2
2023/10/11 00:01:40;;;;;;;4.75;1.85;;;22.00;50.40;;;;;;5131707;27;20030;-68
2023/10/11 00:04:23;;;;;;;0.65;0.65;;;21.90;50.40;;;;;;5152615;27;20035;-68
2023/10/11 00:06:51;;;;;;;0.80;0.80;;;21.90;50.50;;;;;;5151101;27;20022;-69
2023/10/11 00:09:17;;;;;;;0.88;0.88;;;21.90;50.40;;;;;;5139258;27;20404;-69
2023/10/11 00:11:42;;;;;;;0.70;0.70;;;21.90;50.40;;;;;;5150516;27;20019;-68
2023/10/11 00:14:08;;;;;;;1.27;0.90;;;21.90;50.40;;;;;;5153093;27;20127;-68
2023/10/11 00:16:35;;;;;;;0.60;0.60;;;21.80;50.40;;;;;;5142792;27;20027;-68
2023/10/11 00:19:01;;;;;;;0.60;0.60;;;21.90;50.30;;;;;;5156495;27;20022;-69
2023/10/11 00:21:42;;;;;;;0.50;0.50;;;21.90;50.30;;;;;;5156526;27;20030;-69
2023/10/11 00:24:08;;;;;;;0.40;0.40;;;21.90;50.20;;;;;;5138872;27;20031;-69
2023/10/11 00:26:40;;;;;;;0.60;0.60;;;21.80;50.20;;;;;;5145119;27;20122;-69
2023/10/11 00:29:09;;;;;;;1.15;0.73;;;21.80;50.20;;;;;;5137466;27;20031;-69
2023/10/11 00:31:35;;;;;;;0.60;0.60;;;21.80;50.20;;;;;;5151303;27;20094;-69
2023/10/11 00:34:03;;;;;;;0.70;0.70;;;21.80;50.30;;;;;;5151225;27;20019;-69
2023/10/11 00:36:29;;;;;;;0.63;0.63;;;21.80;50.40;;;;;;5155131;27;20113;-69
2023/10/11 00:38:56;;;;;;;0.70;0.68;;;21.70;50.40;;;;;;5137554;27;20448;-69
2023/10/11 00:41:25;;;;;;;0.80;0.80;;;21.70;50.40;;;;;;5151003;27;20026;-70
2023/10/11 00:43:52;;;;;;;0.60;0.60;;;21.70;50.50;;;;;;5148477;27;20019;-69
2023/10/11 00:46:19;;;;;;;0.47;0.47;;;21.60;50.60;;;;;;5155076;27;20075;-69
2023/10/11 00:48:53;;;;;;;0.43;0.43;;;21.60;50.60;;;;;;5149928;27;20031;-69
2023/10/11 00:51:20;;;;;;;0.50;0.50;;;21.60;50.60;;;;;;5155711;27;20027;-70
2023/10/11 00:53:47;;;;;;;0.82;0.75;;;21.60;50.70;;;;;;5146102;27;20061;-69
2023/10/11 00:56:14;;;;;;;3.08;1.55;;;21.50;50.70;;;;;;5148693;27;20119;-69
2023/10/11 00:58:40;;;;;;;0.65;0.65;;;21.50;50.70;;;;;;5144653;27;20084;-69
2023/10/11 01:01:08;;;;;;;0.60;0.60;;;21.50;50.80;;;;;;5155608;27;20031;-69
2023/10/11 01:03:37;;;;;;;0.82;0.75;;;21.50;50.90;;;;;;5147869;27;20429;-69
2023/10/11 01:06:04;;;;;;;0.40;0.40;;;21.40;50.90;;;;;;5150164;27;20027;-69
2023/10/11 01:08:38;;;;;;;0.60;0.52;;;21.40;51.00;;;;;;5143332;27;20023;-69
2023/10/11 01:11:09;;;;;;;0.98;0.98;;;21.30;51.00;;;;;;5154937;27;20027;-69
2023/10/11 01:13:40;;;;;;;0.47;0.47;;;21.30;51.10;;;;;;5137677;27;20063;-69
2023/10/11 01:16:09;;;;;;;3.42;0.95;;;21.20;51.10;;;;;;5153765;27;20428;-69
2023/10/11 01:18:38;;;;;;;1.85;1.02;;;21.20;51.20;;;;;;5154346;27;20071;-69
2023/10/11 01:21:04;;;;;;;0.40;0.40;;;21.10;51.30;;;;;;5154772;27;20162;-69
2023/10/11 01:23:34;;;;;;;0.68;0.68;;;21.00;51.50;;;;;;5155028;27;20023;-69
2023/10/11 01:26:07;;;;;;;3.00;1.50;;;21.00;51.60;;;;;;5150014;27;20011;-69
2023/10/11 01:28:34;;;;;;;0.50;0.50;;;20.90;51.70;;;;;;5143341;27;20114;-70
2023/10/11 01:31:00;;;;;;;0.50;0.50;;;20.90;51.80;;;;;;5154561;27;20428;-69
2023/10/11 01:33:26;;;;;;;2.72;0.77;;;20.90;51.90;;;;;;5137791;27;20503;-69
2023/10/11 01:35:52;;;;;;;1.58;0.70;;;20.80;51.90;;;;;;5137296;27;20034;-68
2023/10/11 01:38:18;;;;;;;0.50;0.50;;;20.80;51.90;;;;;;5139654;27;20400;-68
2023/10/11 01:40:44;;;;;;;1.30;1.02;;;20.80;52.00;;;;;;5144488;27;20034;-68
2023/10/11 01:43:10;;;;;;;0.75;0.75;;;20.80;52.00;;;;;;5139932;27;20019;-69
2023/10/11 01:45:39;;;;;;;0.40;0.40;;;20.80;52.00;;;;;;5151739;27;20106;-69
2023/10/11 01:48:05;;;;;;;0.60;0.60;;;20.70;52.00;;;;;;5140544;27;20424;-69
2023/10/11 01:50:31;;;;;;;0.88;0.88;;;20.70;52.20;;;;;;5153760;27;20023;-69
2023/10/11 01:52:57;;;;;;;0.80;0.80;;;20.70;52.20;;;;;;5141556;27;20038;-68
2023/10/11 01:55:22;;;;;;;0.70;0.70;;;20.70;52.20;;;;;;5149678;27;20360;-68
2023/10/11 01:57:51;;;;;;;0.40;0.40;;;20.70;52.20;;;;;;5154050;27;20440;-68
2023/10/11 02:00:20;;;;;;;0.85;0.80;;;20.70;52.30;;;;;;5146900;27;20050;-69
2023/10/11 02:02:58;;;;;;;0.50;0.50;;;20.70;52.30;;;;;;5144986;27;20027;-69
2023/10/11 02:05:25;;;;;;;0.98;0.80;;;20.60;52.30;;;;;;5153671;27;20114;-69
2023/10/11 02:07:51;;;;;;;0.65;0.65;;;20.60;52.40;;;;;;5136801;27;20027;-68
2023/10/11 02:10:25;;;;;;;0.50;0.50;;;20.60;52.40;;;;;;5153998;27;20026;-69
2023/10/11 02:12:52;;;;;;;1.13;0.77;;;20.60;52.50;;;;;;5141968;27;20034;-68
2023/10/11 02:15:21;;;;;;;0.90;0.60;;;20.60;52.40;;;;;;5148713;27;20018;-68
2023/10/11 02:17:52;;;;;;;0.40;0.40;;;20.50;52.40;;;;;;5150183;27;20058;-68
2023/10/11 02:20:22;;;;;;;0.50;0.50;;;20.50;52.60;;;;;;5152956;27;20022;-68
2023/10/11 02:22:52;;;;;;;0.40;0.40;;;20.50;52.70;;;;;;5149849;27;20551;-68
2023/10/11 02:25:24;;;;;;;5.87;1.10;;;20.50;52.70;;;;;;5148779;27;20476;-68
2023/10/11 02:27:50;;;;;;;0.47;0.47;;;20.50;52.70;;;;;;5151950;27;20027;-68
2023/10/11 02:30:26;;;;;;;2.22;1.48;;;20.50;52.80;;;;;;5151365;27;20071;-70
2023/10/11 02:32:58;;;;;;;3.00;1.45;;;20.50;52.80;;;;;;5139427;27;20063;-69
2023/10/11 02:35:26;;;;;;;0.88;0.88;;;20.60;52.80;;;;;;5148898;27;20223;-68
2023/10/11 02:37:55;;;;;;;3.67;1.15;;;20.50;52.80;;;;;;5138124;27;20123;-68
2023/10/11 02:40:24;;;;;;;0.43;0.43;;;20.50;52.90;;;;;;5140489;27;20015;-68
2023/10/11 02:42:51;;;;;;;0.40;0.40;;;20.50;52.80;;;;;;5146393;27;20467;-68
2023/10/11 02:45:21;;;;;;;0.50;0.50;;;20.50;52.90;;;;;;5151298;27;20495;-68
2023/10/11 02:47:59;;;;;;;0.50;0.50;;;20.50;52.90;;;;;;5147230;27;20027;-68
2023/10/11 02:50:28;;;;;;;0.60;0.60;;;20.50;52.80;;;;;;5153183;27;20264;-69
2023/10/11 02:53:04;;;;;;;0.85;0.85;;;20.40;52.80;;;;;;5152909;27;20079;-68
2023/10/11 02:55:30;;;;;;;0.80;0.80;;;20.40;52.90;;;;;;5151896;27;20029;-68
2023/10/11 02:58:08;;;;;;;0.40;0.40;;;20.40;53.00;;;;;;5148742;27;20404;-68
2023/10/11 03:00:35;;;;;;;0.38;0.38;;;20.40;53.00;;;;;;5151959;27;20053;-68
2023/10/11 03:03:01;;;;;;;0.47;0.47;;;20.40;53.10;;;;;;5147242;27;20026;-69
2023/10/11 03:05:27;;;;;;;1.02;0.98;;;20.40;53.20;;;;;;5152940;27;20033;-69
2023/10/11 03:07:55;;;;;;;1.65;1.05;;;20.30;53.30;;;;;;5135757;27;20045;-69
2023/10/11 03:10:20;;;;;;;0.60;0.60;;;20.40;53.30;;;;;;5143958;27;20388;-69
2023/10/11 03:12:50;;;;;;;2.17;1.50;;;20.30;53.40;;;;;;5152210;27;20030;-69
2023/10/11 03:15:19;;;;;;;1.73;1.10;;;20.30;53.50;;;;;;5151924;27;20061;-70
2023/10/11 03:17:52;;;;;;;0.40;0.40;;;20.30;53.60;;;;;;5149547;27;20018;-69
2023/10/11 03:20:26;;;;;;;1.88;1.20;;;20.40;53.70;;;;;;5151105;27;20109;-69
2023/10/11 03:22:52;;;;;;;1.10;0.90;;;20.40;53.70;;;;;;5147856;27;20030;-69
2023/10/11 03:25:19;;;;;;;0.65;0.65;;;20.40;53.80;;;;;;5147895;27;20493;-68
2023/10/11 03:27:49;;;;;;;0.73;0.73;;;20.50;53.70;;;;;;5152676;27;20019;-69
2023/10/11 03:30:15;;;;;;;0.60;0.60;;;20.50;53.70;;;;;;5145899;27;20091;-68
2023/10/11 03:32:44;;;;;;;0.40;0.40;;;20.50;53.70;;;;;;5142147;27;20101;-68
2023/10/11 03:35:10;;;;;;;0.80;0.70;;;20.50;53.70;;;;;;5151208;27;20415;-68
2023/10/11 03:37:37;;;;;;;1.40;1.25;;;20.50;53.70;;;;;;5140119;27;20028;-68
2023/10/11 03:40:13;;;;;;;0.50;0.50;;;20.50;53.70;;;;;;5136976;27;20018;-69
2023/10/11 03:42:53;;;;;;;0.85;0.85;;;20.50;53.70;;;;;;5143750;27;20023;-69
2023/10/11 03:45:20;;;;;;;1.80;1.52;;;20.50;53.80;;;;;;5146819;27;20083;-69
2023/10/11 03:47:47;;;;;;;0.50;0.50;;;20.50;53.80;;;;;;5153837;27;20042;-69
2023/10/11 03:50:12;;;;;;;0.50;0.50;;;20.60;53.90;;;;;;5155599;27;20025;-69
2023/10/11 03:52:40;;;;;;;0.82;0.82;;;20.60;53.90;;;;;;5147989;27;20101;-69
2023/10/11 03:55:12;;;;;;;0.90;0.77;;;20.60;53.90;;;;;;5156447;27;20015;-69
2023/10/11 03:57:42;;;;;;;0.50;0.50;;;20.60;53.90;;;;;;5138991;27;20037;-69
2023/10/11 04:00:46;;;;;;;7.22;1.30;;;20.70;53.90;;;;;;5154811;27;20027;-70
2023/10/11 04:03:05;;;;;;;0.60;0.60;;;20.70;53.90;;;;;;5145324;27;20085;-68
2023/10/11 04:05:34;;;;;;;0.70;0.70;;;20.70;53.80;;;;;;5155147;27;20018;-69
2023/10/11 04:08:10;;;;;;;0.60;0.60;;;20.70;53.70;;;;;;5156340;27;20563;-69
2023/10/11 04:10:39;;;;;;;1.00;0.88;;;20.70;53.70;;;;;;5156001;27;20061;-68
2023/10/11 04:13:13;;;;;;;0.47;0.47;;;20.80;53.70;;;;;;5142387;27;20023;-68
2023/10/11 04:15:40;;;;;;;0.88;0.88;;;20.80;53.60;;;;;;5154218;27;20026;-69
2023/10/11 04:18:15;;;;;;;3.95;0.70;;;20.80;53.60;;;;;;5150554;27;20050;-68
2023/10/11 04:20:50;;;;;;;0.52;0.52;;;20.80;53.50;;;;;;5146587;27;20097;-68
2023/10/11 04:23:16;;;;;;;0.80;0.73;;;20.80;53.50;;;;;;5150190;27;20022;-68
2023/10/11 04:25:47;;;;;;;0.40;0.40;;;20.90;53.40;;;;;;5151151;27;20109;-68
2023/10/11 04:28:12;;;;;;;0.40;0.40;;;20.90;53.40;;;;;;5135577;27;20027;-68
2023/10/11 04:30:41;;;;;;;0.43;0.43;;;20.90;53.40;;;;;;5154657;27;20033;-69
2023/10/11 04:33:13;;;;;;;1.98;1.42;;;20.90;53.30;;;;;;5156263;27;20027;-71
2023/10/11 04:35:43;;;;;;;2.58;0.77;;;20.90;53.30;;;;;;5152665;27;20030;-68
2023/10/11 04:38:11;;;;;;;1.15;1.05;;;20.90;53.30;;;;;;5136137;27;20426;-68
2023/10/11 04:40:51;;;;;;;1.00;0.85;;;21.00;53.20;;;;;;5144959;27;20083;-68
2023/10/11 04:43:23;;;;;;;0.83;0.83;;;20.90;53.10;;;;;;5147317;27;20027;-69
2023/10/11 04:45:59;;;;;;;0.85;0.85;;;21.00;53.00;;;;;;5152899;27;20019;-69
2023/10/11 04:48:30;;;;;;;0.80;0.80;;;21.00;52.90;;;;;;5154625;27;20031;-68
2023/10/11 04:51:45;;;;;;;0.45;0.45;;;21.00;52.90;;;;;;5156009;27;20030;-68
2023/10/11 04:53:58;;;;;;;1.42;1.33;;;21.00;52.70;;;;;;5142661;27;20457;-68
2023/10/11 04:59:06;;;;;;;0.60;0.60;;;21.00;52.50;;;;;;5135278;27;19911;-69
2023/10/11 05:04:26;;;;;;;0.38;0.38;;;21.00;52.50;;;;;;5145970;27;20031;-69
2023/10/11 05:06:53;;;;;;;0.50;0.50;;;20.90;52.50;;;;;;5155142;27;20042;-69
2023/10/11 05:11:50;;;;;;;0.65;0.65;;;20.90;52.40;;;;;;5154175;27;20042;-69
2023/10/11 05:14:29;;;;;;;0.57;0.57;;;20.80;52.40;;;;;;5145323;27;20027;-69
2023/10/11 05:16:59;;;;;;;1.05;0.85;;;20.80;52.40;;;;;;5154904;27;20132;-70
2023/10/11 05:19:34;;;;;;;0.83;0.83;;;20.80;52.40;;;;;;5155222;27;20503;-69
2023/10/11 05:22:01;;;;;;;0.63;0.63;;;20.70;52.50;;;;;;5139461;27;20252;-69
2023/10/11 05:32:32;;;;;;;0.68;0.68;;;20.50;52.70;;;;;;5145561;27;20469;-68
2023/10/11 05:51:19;;;;;;;0.55;0.55;;;20.30;53.20;;;;;;5154782;27;20086;-69
2023/10/11 05:53:46;;;;;;;0.52;0.52;;;20.40;53.10;;;;;;5137690;27;20035;-70
2023/10/11 05:56:20;;;;;;;2.17;1.42;;;20.40;53.10;;;;;;5154584;27;20022;-69
2023/10/11 05:58:55;;;;;;;0.52;0.52;;;20.40;53.00;;;;;;5154772;27;20031;-69
2023/10/11 06:01:22;;;;;;;1.08;1.02;;;20.50;52.90;;;;;;5138399;27;20019;-70
2023/10/11 06:03:51;;;;;;;0.73;0.73;;;20.50;52.80;;;;;;5152607;27;20030;-69
2023/10/11 06:09:16;;;;;;;0.45;0.45;;;20.60;52.60;;;;;;5146781;27;20492;-69
2023/10/11 06:11:47;;;;;;;1.02;0.98;;;20.60;52.50;;;;;;5151931;27;20027;-69
2023/10/11 06:14:16;;;;;;;1.33;1.20;;;20.70;52.40;;;;;;5149321;27;20075;-69
2023/10/11 06:16:43;;;;;;;0.70;0.70;;;20.70;52.30;;;;;;5142907;27;20396;-69
2023/10/11 06:19:18;;;;;;;0.98;0.98;;;20.80;52.20;;;;;;5148205;27;20467;-69
2023/10/11 06:21:57;;;;;;;1.58;0.73;;;20.90;52.00;;;;;;5151282;27;20068;-69
2023/10/11 06:24:33;;;;;;;1.85;1.70;;;20.90;51.90;;;;;;5151127;27;20488;-69
2023/10/11 06:29:54;;;;;;;3.20;1.30;;;21.10;51.70;;;;;;5142721;27;20030;-69
2023/10/11 06:32:22;;;;;;;0.50;0.50;;;21.30;51.50;;;;;;5146883;27;20372;-69
2023/10/11 06:34:48;;;;;;;0.63;0.63;;;21.30;51.00;;;;;;5144720;27;20026;-69
2023/10/11 06:37:18;;;;;;;0.90;0.90;;;21.50;50.90;;;;;;5143084;27;20106;-69
2023/10/11 06:42:21;;;;;;;0.65;0.65;;;21.60;50.30;;;;;;5147661;27;20496;-68
2023/10/11 06:44:48;;;;;;;0.40;0.40;;;21.80;50.40;;;;;;5132606;27;20027;-68
2023/10/11 06:47:15;;;;;;;0.70;0.70;;;21.90;50.20;;;;;;5148120;27;20039;-68
2023/10/11 06:49:44;;;;;;;0.60;0.60;;;22.00;49.90;;;;;;5151287;27;20025;-68
2023/10/11 06:52:11;;;;;;;0.40;0.40;;;22.10;49.70;;;;;;5138867;27;20033;-69
2023/10/11 06:54:45;;;;;;;0.55;0.55;;;22.20;49.60;;;;;;5153060;27;20383;-69
2023/10/11 06:57:16;;;;;;;0.60;0.60;;;22.30;49.30;;;;;;5138706;27;20114;-69
2023/10/11 06:59:42;;;;;;;;;;;22.40;48.80;;;;;;5151294;27;20467;-69
2023/10/11 07:02:17;;;;;;;0.70;0.70;;;22.50;48.80;;;;;;5132102;27;19912;-70
2023/10/11 07:04:50;;;;;;;0.77;0.70;;;22.50;48.30;;;;;;5142329;27;20484;-70
2023/10/11 07:07:18;;;;;;;0.93;0.90;;;22.60;48.20;;;;;;5148335;27;20388;-69
2023/10/11 07:09:56;;;;;;;1.02;1.02;;;22.60;48.30;;;;;;5148301;27;20027;-70
2023/10/11 07:12:40;;;;;;;0.82;0.82;;;22.70;48.20;;;;;;5147788;27;20027;-70
2023/10/11 07:15:09;;;;;;;0.65;0.60;;;22.80;48.30;;;;;;5149580;27;20034;-70
2023/10/11 07:17:36;;;;;;;0.85;0.85;;;23.00;48.20;;;;;;5149040;27;20115;-70
2023/10/11 07:20:12;;;;;;;13.63;1.10;;;23.30;48.00;;;;;;5152068;27;20081;-70
2023/10/11 07:22:39;;;;;;;0.77;0.77;;;23.60;48.10;;;;;;5143563;27;20038;-70
2023/10/11 07:25:18;;;;;;;0.50;0.50;;;24.00;47.60;;;;;;5142194;27;20026;-70
2023/10/11 07:27:44;;;;;;;1.00;0.85;;;24.30;46.40;;;;;;5148677;27;20187;-69
2023/10/11 07:30:16;;;;;;;0.63;0.63;;;24.50;45.50;;;;;;5152644;27;20065;-70
2023/10/11 07:32:45;;;;;;;0.65;0.65;;;24.80;45.20;;;;;;5141922;27;20031;-70
2023/10/11 07:35:19;;;;;;;0.95;0.95;;;25.10;44.80;;;;;;5149035;27;20033;-70
2023/10/11 07:37:44;;;;;;;0.73;0.73;;;25.40;44.40;;;;;;5135731;27;20031;-70
2023/10/11 07:40:18;;;;;;;0.57;0.57;;;25.70;43.40;;;;;;5137079;27;20055;-70
2023/10/11 07:42:44;;;;;;;0.73;0.73;;;26.00;43.10;;;;;;5148560;27;20550;-70
2023/10/11 07:45:15;;;;;;;1.20;1.02;;;26.20;42.50;;;;;;5149664;27;20093;-70
2023/10/11 07:47:45;;;;;;;0.50;0.50;;;26.50;41.80;;;;;;5143407;27;20051;-70
2023/10/11 07:50:14;;;;;;;0.50;0.50;;;26.80;41.40;;;;;;5152547;27;20015;-70
2023/10/11 07:52:41;;;;;;;0.75;0.75;;;27.00;40.80;;;;;;5149734;27;20039;-70
2023/10/11 07:55:12;;;;;;;0.50;0.50;;;27.30;40.20;;;;;;5146592;27;20023;-70
2023/10/11 07:57:44;;;;;;;0.82;0.82;;;27.50;39.40;;;;;;5150934;27;20451;-70
2023/10/11 08:00:17;;;;;;;1.38;0.65;;;27.80;38.90;;;;;;5138244;27;20059;-70
2023/10/11 08:02:55;;;;;;;0.50;0.50;;;27.80;38.20;;;;;;5140137;27;20480;-71
2023/10/11 08:05:22;;;;;;;0.57;0.57;;;28.00;37.70;;;;;;5150777;27;20027;-70
2023/10/11 08:07:48;;;;;;;3.40;0.90;;;28.10;37.40;;;;;;5133419;27;20034;-71
2023/10/11 08:10:34;;;;;;;0.60;0.60;;;28.20;37.80;;;;;;5152852;27;20031;-71
2023/10/11 08:13:02;;;;;;;0.40;0.40;;;28.50;38.00;;;;;;5150037;27;20029;-70
2023/10/11 08:15:28;;;;;;;2.15;1.15;;;28.80;36.50;;;;;;5146034;27;20499;-71
2023/10/11 08:17:54;;;;;;;2.67;1.17;;;29.10;35.70;;;;;;5150839;27;20123;-71
2023/10/11 08:20:24;;;;;;;0.80;0.80;;;29.30;35.40;;;;;;5147599;27;20094;-70
2023/10/11 08:22:55;;;;;;;0.45;0.45;;;29.40;36.20;;;;;;5151607;27;20026;-71
2023/10/11 08:25:26;;;;;;;1.95;1.13;;;29.80;35.40;;;;;;5137310;27;20043;-71
2023/10/11 08:28:04;;;;;;;0.85;0.85;;;30.00;34.40;;;;;;5150281;27;20089;-71
2023/10/11 08:30:31;;;;;;;0.77;0.77;;;30.20;34.10;;;;;;5150587;27;20486;-71
2023/10/11 08:32:57;;;;;;;0.90;0.88;;;30.30;33.80;;;;;;5151988;27;21322;-71
2023/10/11 08:35:31;;;;;;;0.77;0.77;;;30.50;34.10;;;;;;5154154;27;20109;-71
2023/10/11 08:38:06;;;;;;;0.65;0.65;;;30.70;33.80;;;;;;5135686;27;20023;-71
2023/10/11 08:40:35;;;;;;;0.55;0.55;;;31.00;33.00;;;;;;5139256;27;20388;-71
2023/10/11 08:43:02;;;;;;;0.43;0.43;;;31.20;32.30;;;;;;5147643;27;20047;-71
2023/10/11 08:45:59;;;;;;;0.70;0.70;;;31.30;32.20;;;;;;5153767;27;20025;-71
2023/10/11 08:48:24;;;;;;;0.80;0.80;;;31.30;31.50;;;;;;5154234;27;20129;-71
2023/10/11 08:50:56;;;;;;;1.55;0.70;;;31.50;31.50;;;;;;5153616;27;20555;-72
2023/10/11 08:53:24;;;;;;;0.40;0.40;;;31.50;31.00;;;;;;5146410;27;20023;-71
2023/10/11 08:55:56;;;;;;;0.85;0.75;;;31.40;31.10;;;;;;5154715;27;20428;-70
2023/10/11 08:58:28;;;;;;;0.57;0.57;;;31.40;31.60;;;;;;5147303;27;20027;-72
2023/10/11 09:00:59;;;;;;;0.95;0.95;;;31.50;31.20;;;;;;5154163;27;20266;-71
2023/10/11 09:03:26;;;;;;;;;;;31.60;31.10;;;;;;5155044;27;20062;-71
2023/10/11 09:06:00;;;;;;;1.50;1.10;;;31.80;30.80;;;;;;5155688;27;19907;-71
2023/10/11 09:08:31;;;;;;;0.60;0.60;;;31.80;30.40;;;;;;5147847;27;20128;-70
2023/10/11 09:11:05;;;;;;;1.15;1.05;;;31.80;30.50;;;;;;5154976;27;20023;-70
2023/10/11 09:13:36;;;;;;;3.60;0.88;;;31.80;30.30;;;;;;5151095;27;20035;-71
2023/10/11 09:16:13;;;;;;;0.75;0.75;;;31.70;30.50;;;;;;5153295;27;20472;-70
2023/10/11 09:18:41;;;;;;;0.60;0.60;;;31.70;30.50;;;;;;5144652;27;20417;-70
2023/10/11 09:21:17;;;;;;;0.70;0.70;;;31.80;31.10;;;;;;5132745;27;20027;-71
2023/10/11 09:23:47;;;;;;;1.00;0.98;;;32.00;30.20;;;;;;5140347;27;20464;-71
2023/10/11 09:26:21;;;;;;;1.33;1.25;;;32.00;30.30;;;;;;5154583;27;20523;-71
2023/10/11 09:28:56;;;;;;;1.92;0.95;;;32.10;30.30;;;;;;5152169;27;20085;-71
2023/10/11 09:31:23;;;;;;;0.73;0.60;;;32.10;30.50;;;;;;5144691;27;20034;-70
2023/10/11 09:33:53;;;;;;;0.75;0.70;;;32.20;30.60;;;;;;5154334;27;20034;-70
2023/10/11 09:36:20;;;;;;;;;;;32.40;29.70;;;;;;5155134;27;20472;-70
2023/10/11 09:38:54;;;;;;;0.65;0.65;;;32.40;28.90;;;;;;5139066;27;20351;-70
2023/10/11 09:41:25;;;;;;;1.00;0.60;;;32.30;29.40;;;;;;5154529;27;20019;-70
2023/10/11 09:43:59;;;;;;;0.70;0.70;;;32.20;29.30;;;;;;5136275;27;20025;-70
2023/10/11 09:46:29;;;;;;;0.70;0.70;;;32.10;29.80;;;;;;5152980;27;20035;-70
2023/10/11 09:49:03;;;;;;;0.60;0.60;;;32.20;29.50;;;;;;5140597;27;20039;-70
2023/10/11 09:51:30;;;;;;;2.00;1.38;;;32.20;29.40;;;;;;5144430;27;20034;-70
2023/10/11 09:54:02;;;;;;;1.20;1.10;;;32.10;29.60;;;;;;5144508;27;20023;-70
2023/10/11 09:56:31;;;;;;;1.00;0.82;;;32.10;29.90;;;;;;5152012;27;20052;-71
2023/10/11 09:59:22;;;;;;;0.70;0.63;;;32.20;29.30;;;;;;5141597;27;20031;-70
2023/10/11 10:02:07;;;;;;;1.40;1.15;;;32.20;29.80;;;;;;5150259;27;20073;-69
2023/10/11 10:04:53;;;;;;;0.50;0.50;;;32.40;29.30;;;;;;5142795;27;20572;-70
2023/10/11 10:07:25;;;;;;;1.05;0.82;;;32.40;29.50;;;;;;5153161;27;20053;-70
2023/10/11 10:09:59;;;;;;;1.38;1.27;;;32.50;28.60;;;;;;5137808;27;20456;-71
2023/10/11 10:12:31;;;;;;;0.52;0.52;;;32.40;28.50;;;;;;5152906;27;20054;-71
2023/10/11 10:15:14;;;;;;;0.60;0.60;;;32.30;28.90;;;;;;5146126;27;20033;-70
2023/10/11 10:18:05;;;;;;;0.70;0.70;;;32.30;29.20;;;;;;5133875;27;20038;-70
2023/10/11 10:20:34;;;;;;;0.77;0.77;;;32.50;29.30;;;;;;5140189;27;20046;-71
2023/10/11 10:23:15;;;;;;;1.13;1.02;;;32.60;29.60;;;;;;5153661;27;20479;-71
2023/10/11 10:26:05;;;;;;;0.50;0.50;;;32.70;29.10;;;;;;5150886;27;20110;-71
2023/10/11 10:28:36;;;;;;;;;;;33.00;29.50;;;;;;5142545;27;20426;-71
2023/10/11 10:31:13;;;;;;;1.15;1.05;;;33.20;28.90;;;;;;5133032;27;20399;-71
2023/10/11 10:34:08;;;;;;;0.70;0.70;;;33.30;28.10;;;;;;5148752;27;20392;-70
2023/10/11 10:36:37;;;;;;;0.82;0.82;;;33.30;27.90;;;;;;5141880;27;20022;-70
2023/10/11 10:39:05;;;;;;;0.73;0.70;;;33.20;28.30;;;;;;5147918;27;20388;-71
2023/10/11 10:41:32;;;;;;;0.95;0.73;;;33.20;28.00;;;;;;5136155;27;20019;-70
2023/10/11 10:44:17;;;;;;;0.68;0.68;;;33.20;27.90;;;;;;5152152;27;20111;-71
2023/10/11 10:46:55;;;;;;;0.70;0.70;;;33.10;28.00;;;;;;5153407;27;20487;-70
2023/10/11 10:49:41;;;;;;;1.08;1.02;;;33.10;28.50;;;;;;5150357;27;20478;-70
2023/10/11 10:52:15;;;;;;;1.90;1.13;;;33.20;28.30;;;;;;5138128;27;20070;-70
2023/10/11 10:54:54;;;;;;;0.75;0.75;;;33.10;28.00;;;;;;5142157;27;20030;-70
2023/10/11 10:57:27;;;;;;;1.23;1.13;;;33.00;28.00;;;;;;5153207;27;20041;-69
2023/10/11 10:59:54;;;;;;;11.75;0.98;;;32.90;28.30;;;;;;5136930;27;20054;-70
2023/10/11 11:02:20;;;;;;;1.27;1.17;;;32.90;28.40;;;;;;5153046;27;20113;-70
2023/10/11 11:04:46;;;;;;;0.63;0.63;;;32.90;28.40;;;;;;5143296;27;20022;-69
2023/10/11 11:07:26;;;;;;;0.80;0.80;;;33.00;28.50;;;;;;5151884;27;20022;-69
2023/10/11 11:09:54;;;;;;;0.83;0.83;;;32.90;28.50;;;;;;5149209;27;20208;-69
2023/10/11 11:12:28;;;;;;;0.60;0.60;;;33.10;28.60;;;;;;5142339;27;20303;-70
2023/10/11 11:14:55;;;;;;;1.13;1.02;;;33.00;28.80;;;;;;5131146;27;20522;-69
2023/10/11 11:17:28;;;;;;;1.45;0.98;;;33.10;28.90;;;;;;5147112;27;20031;-69
2023/10/11 11:22:52;;;;;;;0.68;0.68;;;33.20;28.50;;;;;;5145039;27;20069;-70
2023/10/11 11:25:27;;;;;;;0.60;0.60;;;33.20;28.60;;;;;;5150524;27;20512;-70
2023/10/11 11:28:29;;;;;;;3.42;1.50;;;33.10;28.50;;;;;;5136477;27;20038;-69
2023/10/11 11:30:57;;;;;;;0.68;0.63;;;32.90;28.60;;;;;;5148863;27;20022;-69
2023/10/11 11:33:28;;;;;;;7.88;1.33;;;32.80;28.90;;;;;;5147744;27;20615;-69
2023/10/11 11:35:55;;;;;;;1.65;0.82;;;32.80;29.20;;;;;;5144502;27;20114;-69
2023/10/11 11:38:21;;;;;;;1.85;1.58;;;32.70;29.40;;;;;;5140173;27;20387;-70
2023/10/11 11:41:03;;;;;;;0.70;0.70;;;32.80;29.80;;;;;;5152172;27;20067;-70
2023/10/11 11:43:32;;;;;;;2.08;1.88;;;32.70;30.00;;;;;;5151526;27;20069;-71
2023/10/11 11:46:03;;;;;;;0.50;0.50;;;32.70;30.00;;;;;;5146771;27;20058;-70
2023/10/11 11:48:28;;;;;;;;;;;32.70;30.00;;;;;;5151671;27;20444;-69
2023/10/11 11:50:57;;;;;;;1.00;0.98;;;32.60;30.20;;;;;;5138950;27;19915;-69
2023/10/11 11:53:23;;;;;;;0.70;0.70;;;32.60;30.30;;;;;;5133776;27;20023;-69
2023/10/11 11:55:49;;;;;;;0.90;0.68;;;32.40;30.60;;;;;;5148966;27;20046;-69
2023/10/11 11:58:17;;;;;;;0.55;0.55;;;32.30;31.00;;;;;;5148702;27;20026;-70
2023/10/11 12:00:59;;;;;;;0.40;0.40;;;32.30;31.20;;;;;;5152327;27;20030;-70
2023/10/11 12:03:24;;;;;;;0.55;0.55;;;32.40;31.20;;;;;;5142500;27;20046;-70
2023/10/11 12:05:52;;;;;;;0.60;0.60;;;32.30;31.30;;;;;;5152186;27;20468;-69
2023/10/11 12:08:20;;;;;;;2.65;1.48;;;32.30;31.40;;;;;;5152615;27;20038;-70
2023/10/11 12:10:47;;;;;;;0.82;0.82;;;32.30;31.40;;;;;;5153957;27;20033;-70
2023/10/11 12:13:22;;;;;;;2.05;1.60;;;32.20;31.60;;;;;;5147645;27;20030;-70
2023/10/11 12:15:54;;;;;;;0.60;0.60;;;32.20;31.80;;;;;;5150867;27;20026;-70
2023/10/11 12:18:33;;;;;;;1.08;0.45;;;32.20;31.90;;;;;;5146066;27;20094;-70
2023/10/11 12:21:11;;;;;;;4.60;1.00;;;32.20;32.30;;;;;;5139623;27;20474;-71
2023/10/11 12:23:46;;;;;;;0.60;0.60;;;32.10;32.30;;;;;;5150442;27;20030;-70
2023/10/11 12:26:12;;;;;;;4.97;1.70;;;32.00;32.50;;;;;;5154322;27;20026;-69
2023/10/11 12:28:38;;;;;;;1.38;0.60;;;31.80;32.80;;;;;;5147951;27;20126;-70
2023/10/11 12:31:04;;;;;;;1.55;1.15;;;31.80;33.10;;;;;;5152977;27;20109;-70
2023/10/11 12:33:30;;;;;;;3.67;1.65;;;31.70;33.20;;;;;;5154846;27;20031;-70
2023/10/11 12:35:56;;;;;;;0.50;0.50;;;31.50;33.40;;;;;;5152646;27;20030;-70
2023/10/11 12:38:23;;;;;;;4.28;1.33;;;31.40;33.60;;;;;;5149152;27;20483;-70
2023/10/11 12:40:49;;;;;;;2.92;1.23;;;31.30;33.80;;;;;;5155266;27;20011;-70
2023/10/11 12:43:14;;;;;;;2.13;1.27;;;31.10;34.10;;;;;;5147564;27;20038;-71
2023/10/11 12:45:42;;;;;;;0.90;0.90;;;31.00;34.40;;;;;;5151219;27;20436;-70
2023/10/11 12:48:10;;;;;;;4.07;1.35;;;30.90;34.40;;;;;;5154943;27;20043;-70
2023/10/11 12:50:36;;;;;;;0.50;0.50;;;30.70;34.80;;;;;;5155848;27;20019;-70
2023/10/11 12:53:10;;;;;;;0.50;0.50;;;30.60;35.20;;;;;;5145987;27;20026;-70
2023/10/11 12:55:43;;;;;;;1.65;1.25;;;30.50;35.50;;;;;;5154034;27;20383;-69
2023/10/11 12:58:13;;;;;;;0.40;0.40;;;30.40;35.70;;;;;;5141682;27;20498;-69
2023/10/11 13:00:47;;;;;;;2.10;1.02;;;30.30;36.00;;;;;;5144743;27;20055;-69
2023/10/11 13:04:06;;;;;;;4.50;0.80;;;30.20;36.20;;;;;;5140517;27;20034;-70
2023/10/11 13:06:09;;;;;;;1.40;1.13;;;30.10;36.30;;;;;;5140891;27;20045;-69
2023/10/11 13:08:37;;;;;;;0.40;0.40;;;30.10;36.60;;;;;;5153574;27;20031;-70
2023/10/11 13:11:05;;;;;;;2.00;1.42;;;30.00;36.20;;;;;;5154903;27;20341;-69
2023/10/11 13:13:32;;;;;;;0.60;0.60;;;29.80;36.40;;;;;;5152495;27;20697;-69
2023/10/11 13:16:01;;;;;;;0.45;0.45;;;29.60;36.60;;;;;;5154834;27;20049;-70
2023/10/11 13:18:28;;;;;;;2.30;1.02;;;29.50;36.90;;;;;;5146715;27;20531;-70
2023/10/11 13:20:55;;;;;;;0.50;0.50;;;29.40;37.20;;;;;;5144400;27;20034;-69
2023/10/11 13:23:28;;;;;;;7.25;1.58;;;29.40;37.40;;;;;;5143687;27;20487;-69
2023/10/11 13:25:59;;;;;;;0.90;0.60;;;29.30;37.50;;;;;;5158255;27;20026;-70
2023/10/11 13:28:26;;;;;;;2.45;1.08;;;29.20;37.70;;;;;;5151582;27;20050;-71
2023/10/11 13:30:53;;;;;;;0.70;0.70;;;29.10;37.80;;;;;;5154568;27;20471;-70
2023/10/11 13:33:20;;;;;;;0.50;0.50;;;29.10;38.00;;;;;;5148802;27;20029;-70
2023/10/11 13:35:47;;;;;;;0.82;0.82;;;29.10;38.10;;;;;;5149084;27;20471;-70
2023/10/11 13:38:17;;;;;;;2.67;0.80;;;29.10;38.10;;;;;;5153609;27;20380;-70
2023/10/11 13:40:43;;;;;;;0.50;0.50;;;29.10;38.00;;;;;;5152183;27;20057;-70
2023/10/11 13:43:09;;;;;;;0.80;0.80;;;29.10;38.20;;;;;;5148997;27;20109;-70
2023/10/11 13:45:40;;;;;;;0.80;0.80;;;29.00;38.30;;;;;;5154317;27;20114;-70
2023/10/11 13:48:11;;;;;;;;;;;29.00;38.20;;;;;;5153401;27;20125;-70
2023/10/11 13:50:38;;;;;;;0.50;0.50;;;29.00;38.30;;;;;;5147099;27;19911;-70